Date,TemperatureHighF,TemperatureAvgF,TemperatureLowF,DewpointHighF,DewpointAvgF,DewpointLowF,HumidityHigh,HumidityAvg,HumidityLow,PressureMaxIn,PressureMinIn,WindSpeedMaxMPH,WindSpeedAvgMPH,GustSpeedMaxMPH,PrecipitationSumIn
2013-1-1,50.0,33.1,25.2,43.6,29.7,23.0,94,87,76,30.54,30.40,3,0,5,0.02
2013-1-2,56.3,35.5,27.2,43.9,30.1,24.9,91,81,56,30.41,30.24,5,1,7,0.01
2013-1-3,53.8,35.6,25.7,39.3,28.9,22.7,89,78,50,30.24,30.12,6,1,7,0.06
2013-1-4,39.4,37.2,34.7,37.5,34.9,31.1,93,91,86,30.33,30.16,5,1,5,0.03
2013-1-5,41.8,39.4,37.3,39.9,37.4,35.1,94,92,90,30.22,30.09,7,1,9,0.13
2013-1-6,43.7,41.6,40.1,40.6,39.4,38.2,93,92,88,30.17,29.99,10,3,12,0.29
2013-1-7,51.7,42.8,38.7,47.1,40.4,36.8,95,91,83,30.15,29.82,14,2,15,0.36
2013-1-8,49.3,41.3,38.7,47.9,39.4,37.0,95,93,89,30.16,29.66,13,2,16,1.29
2013-1-9,48.1,46.1,44.8,45.6,43.0,41.5,91,89,87,29.72,29.68,16,7,17,0.10
2013-1-14,33.5,33.5,33.5,30.5,30.5,30.5,89,89,89,30.62,30.60,1,0,1,0.00
2013-1-15,46.4,34.5,32.9,39.7,30.7,29.0,90,86,74,30.74,30.61,2,0,3,0.00
2013-1-16,49.9,35.7,28.4,41.1,30.7,24.8,88,82,66,30.72,30.55,6,1,6,0.00
2013-1-17,58.3,35.0,25.4,44.6,28.9,22.3,91,79,55,30.57,30.33,3,0,5,0.00
2013-1-18,45.7,33.6,26.5,40.8,30.1,23.0,92,87,77,30.39,30.29,4,0,5,0.00
2013-1-19,38.9,34.0,30.2,36.3,31.5,28.0,93,91,89,30.43,30.38,4,0,5,0.00
2013-1-20,39.6,34.1,26.6,37.8,32.1,24.4,94,92,91,30.43,30.32,3,0,4,0.01
2013-1-21,38.9,34.2,29.9,36.6,32.2,27.9,94,92,89,30.32,30.17,6,1,6,0.01
2013-1-22,44.6,33.1,26.1,41.4,30.6,24.1,94,91,85,30.19,29.94,3,0,7,0.00
2013-1-23,43.6,39.2,34.9,41.7,37.0,31.9,94,92,87,30.11,29.83,9,2,11,0.29
2013-1-24,45.2,41.2,37.6,41.7,38.5,35.5,93,90,85,30.21,30.04,7,1,7,0.04
2013-1-25,55.6,43.2,37.4,49.5,40.4,35.6,95,90,76,30.08,29.93,6,1,8,0.00
2013-1-26,40.5,39.0,37.8,38.6,36.8,35.5,93,92,89,30.04,29.89,8,1,8,0.03
2013-1-27,42.3,39.8,37.8,40.4,37.9,35.6,95,93,90,30.04,29.98,9,2,10,0.06
2013-1-28,41.9,40.6,39.1,38.8,37.4,35.0,94,88,77,30.07,29.99,9,3,11,0.05
2013-1-29,44.8,42.3,39.8,41.9,39.6,37.4,93,90,85,30.32,30.07,3,1,5,0.04
2013-1-30,45.0,44.1,43.6,43.4,42.5,41.9,95,94,93,30.40,30.32,9,2,10,0.04
2013-1-31,47.5,45.3,43.4,45.7,43.6,41.8,95,94,92,30.39,30.29,11,2,14,0.04
2013-2-1,53.1,45.2,38.0,48.4,42.6,35.5,95,91,83,30.47,30.36,5,1,6,0.03
2013-2-2,44.5,38.1,31.1,42.6,36.2,29.2,95,93,90,30.45,30.28,5,1,5,0.14
2013-2-3,44.3,41.5,39.4,42.4,39.7,37.5,94,93,92,30.33,30.19,6,1,8,0.07
2013-2-4,49.3,45.0,41.6,43.2,41.7,40.0,95,88,78,30.20,29.87,13,3,15,0.07
2013-2-5,48.6,45.9,42.8,43.3,41.6,39.8,91,85,78,29.90,29.78,16,6,18,0.02
2013-2-6,47.9,44.4,42.5,41.8,40.5,39.2,91,86,74,30.03,29.79,13,4,18,0.04
2013-2-7,57.6,43.8,32.0,45.3,37.6,28.1,90,79,59,30.23,29.78,26,3,26,0.03
2013-2-8,47.5,37.6,29.5,43.2,33.7,26.5,93,86,77,30.33,30.23,4,0,4,0.01
2013-2-9,45.7,40.6,34.6,41.1,37.4,31.6,92,88,81,30.38,30.28,2,0,3,0.02
2013-2-10,55.1,38.3,28.1,45.1,33.2,25.8,93,82,60,30.41,30.35,8,1,8,0.01
2013-2-11,43.2,41.1,38.9,40.8,38.5,35.2,93,90,86,30.37,30.33,8,2,10,0.02
2013-2-12,48.4,45.4,42.3,44.7,42.3,40.1,93,89,80,30.41,30.24,12,4,15,0.02
2013-2-13,49.9,45.9,40.7,43.4,40.3,36.5,87,81,76,30.51,30.27,12,3,14,0.00
2013-2-14,46.4,43.9,41.4,44.1,41.2,37.8,92,90,87,30.61,30.49,4,1,5,0.15
2013-2-15,63.9,47.2,41.2,51.6,42.3,37.5,93,84,62,30.60,30.20,6,1,8,0.01
2013-2-16,52.2,45.6,41.0,44.6,40.5,37.5,94,83,66,30.20,30.10,13,4,16,0.04
2013-2-17,47.0,41.5,37.1,40.8,36.0,32.4,88,81,73,30.26,30.14,9,1,10,0.04
2013-2-18,45.0,40.1,37.6,40.1,36.1,33.7,90,86,72,30.14,29.80,9,1,9,0.00
2013-2-19,55.3,42.7,32.6,43.5,35.7,28.3,87,77,60,30.02,29.79,9,2,10,0.00
2013-2-20,41.4,36.9,32.6,38.4,33.8,28.7,91,89,85,30.06,30.01,5,1,5,0.02
2013-2-21,44.3,40.7,35.3,40.3,37.9,32.6,94,90,84,30.05,29.99,13,4,17,0.30
2013-2-22,47.9,42.8,40.0,43.2,38.3,34.3,93,84,67,30.03,29.62,23,8,23,0.51
2013-2-23,54.7,44.4,39.2,41.4,36.8,34.0,87,75,56,30.35,29.84,11,3,14,0.00
2013-2-24,46.3,43.7,40.0,38.8,37.3,35.9,89,78,71,30.36,29.87,21,6,23,0.05
2013-2-25,47.7,44.0,40.7,41.9,38.0,34.3,90,79,67,30.29,29.82,28,6,28,0.21
2013-2-26,45.9,41.9,36.0,37.5,35.3,31.9,90,78,63,30.35,30.17,16,3,18,0.04
2013-2-27,49.3,42.7,38.2,41.7,37.9,34.6,91,83,69,30.34,30.19,11,2,12,0.02
2013-2-28,43.2,40.9,37.6,41.6,38.5,34.2,94,91,87,30.31,30.22,5,1,8,0.70
2013-3-1,54.4,51.5,44.1,49.8,48.5,42.5,95,90,83,30.30,30.23,20,7,22,0.78
2013-3-2,53.1,48.4,41.8,49.0,45.3,36.2,93,89,79,30.26,30.02,12,4,15,0.33
2013-3-3,57.4,43.9,33.7,43.2,36.2,28.5,86,75,53,30.35,30.18,13,3,13,0.07
2013-3-4,59.8,42.3,29.2,44.7,33.1,25.7,93,72,46,30.34,30.01,6,1,9,0.00
2013-3-5,47.3,42.0,40.0,33.3,29.9,28.8,67,62,57,30.01,29.89,10,3,13,0.00
2013-3-6,46.4,42.4,40.0,41.4,38.1,35.5,87,85,81,29.80,29.66,4,1,5,0.04
2013-3-7,47.5,42.7,39.8,44.4,40.3,37.6,93,91,88,30.15,29.91,4,1,5,0.18
2013-3-8,58.1,44.5,34.6,49.5,38.8,30.2,93,81,57,30.27,30.12,7,1,8,0.01
2013-3-9,55.8,42.0,30.1,45.0,35.6,27.0,92,79,60,30.52,30.27,8,1,8,0.00
2013-3-10,46.1,42.5,37.3,42.2,38.6,33.7,89,86,82,30.52,30.45,5,1,6,0.00
2013-3-11,51.3,43.4,36.2,43.6,38.9,33.1,93,85,71,30.47,30.16,7,1,8,0.11
2013-3-12,51.1,47.7,41.2,49.0,45.4,39.1,95,92,89,30.15,29.98,18,6,18,0.65
2013-3-13,51.1,50.5,50.0,48.5,48.2,47.9,93,92,91,30.12,30.06,13,7,19,0.19
2013-3-21,51.1,43.2,39.2,36.3,33.2,30.3,86,68,48,30.21,30.02,12,5,14,0.00
2013-3-22,54.0,41.8,32.6,37.3,31.7,25.5,83,68,44,30.41,30.20,12,3,13,0.00
2013-3-23,51.7,40.4,32.0,37.0,30.0,25.4,84,68,42,30.44,30.35,7,2,9,0.00
2013-3-24,62.3,44.4,32.8,37.6,31.3,25.0,79,62,34,30.35,30.17,7,2,12,0.00
2013-3-25,67.9,49.4,38.7,43.7,35.2,29.3,74,59,38,30.18,29.99,9,2,11,0.00
2013-3-26,59.2,42.9,34.6,43.4,33.8,28.0,83,71,51,30.06,30.01,7,1,7,0.01
2013-3-27,64.1,47.7,35.1,48.1,39.7,30.7,89,75,50,30.04,29.99,0,0,0,0.00
2013-3-28,64.1,50.5,38.9,47.3,41.6,34.7,87,72,50,30.17,30.04,0,0,0,0.00
2013-3-29,60.7,49.1,39.1,49.3,42.4,34.8,89,78,64,30.30,30.18,0,0,0,0.00
2013-3-30,68.8,48.7,36.2,51.9,42.2,32.6,91,79,55,30.31,30.13,0,0,0,0.00
2013-3-31,64.3,49.8,36.7,50.4,42.5,33.8,91,77,55,30.13,29.95,0,0,0,0.00
2013-4-1,59.8,50.6,40.3,49.6,44.2,36.1,90,79,68,30.14,29.99,0,0,0,0.00
2013-4-2,60.1,51.9,47.5,46.6,44.9,42.5,89,77,60,30.23,30.15,0,0,0,0.00
2013-4-3,62.3,52.5,46.3,49.9,45.3,40.3,88,77,61,30.22,30.02,0,0,0,0.00
2013-4-4,55.6,51.4,46.8,51.5,47.0,42.5,92,85,77,30.02,29.62,0,0,0,0.00
2013-4-5,60.1,52.7,48.6,51.5,48.2,45.2,90,85,68,29.85,29.68,0,0,0,0.00
2013-4-6,52.4,49.9,48.2,46.2,43.9,41.7,85,80,76,29.84,29.66,0,0,0,0.00
2013-4-9,52.9,50.2,47.5,46.4,44.5,43.1,88,81,71,30.37,30.17,0,0,0,0.00
2013-4-10,58.0,50.8,47.5,48.7,45.1,41.7,90,81,64,30.22,29.89,0,0,0,0.00
2013-4-11,56.5,49.6,39.6,42.5,38.0,32.3,82,65,47,30.32,30.22,0,0,0,0.00
2013-4-12,44.8,41.4,36.7,40.2,36.9,31.4,90,84,77,30.20,29.74,0,0,0,0.00
2013-4-14,45.7,43.1,40.3,37.3,36.0,34.8,81,76,72,29.97,29.96,0,0,0,0.00
2013-4-15,51.8,42.8,40.0,45.9,38.8,34.6,89,86,80,30.08,29.97,0,0,0,0.00
2013-4-18,48.6,47.9,47.5,46.2,44.8,43.9,91,89,85,30.37,30.21,0,0,0,0.00
2013-4-19,55.6,50.7,48.2,50.5,47.5,45.1,94,89,78,30.20,30.09,0,0,0,0.00
2013-4-20,58.1,51.5,47.9,46.4,45.1,43.4,90,79,63,30.26,30.16,0,0,0,0.00
2013-4-21,60.5,48.9,43.4,45.6,41.3,37.0,86,76,50,30.42,30.24,0,0,0,0.00
2013-4-22,46.1,38.3,33.8,39.3,33.4,29.2,87,83,77,30.58,30.43,0,0,0,0.00
2013-4-24,51.1,51.1,51.1,42.5,42.5,42.5,72,72,72,30.36,30.36,2,2,2,0.00
2013-4-30,56.5,51.0,39.2,40.8,35.5,30.4,72,56,44,30.47,30.33,8,2,8,0.00
2013-5-1,64.1,48.0,34.7,42.5,35.7,29.0,85,65,37,30.65,30.47,5,2,5,0.00
2013-5-2,64.6,57.0,47.9,45.5,42.5,38.2,69,59,43,30.49,30.14,7,3,10,0.01
2013-5-3,76.0,57.4,39.8,53.0,44.2,34.1,89,64,39,30.17,30.00,10,2,13,0.00
2013-5-4,78.1,60.7,44.1,54.2,46.6,38.8,89,62,34,30.02,29.77,9,2,10,0.00
2013-5-5,76.9,61.5,47.7,56.3,49.0,41.8,84,65,44,29.77,29.52,9,2,10,0.00
2013-5-6,81.4,64.6,49.7,58.2,50.0,44.2,86,61,41,29.61,29.51,7,1,9,0.00
2013-5-7,69.7,59.6,50.0,54.4,49.2,43.7,84,69,57,29.69,29.54,10,2,13,0.00
2013-5-8,65.7,60.8,51.8,54.4,51.3,45.5,79,71,64,29.88,29.84,9,3,13,0.00
2013-5-9,70.9,58.4,45.7,55.0,49.3,41.5,89,73,51,29.96,29.86,7,1,8,0.00
2013-5-10,75.2,60.7,47.2,56.7,50.5,42.5,88,70,52,29.95,29.87,8,1,10,0.00
2013-5-11,74.7,61.8,51.7,56.9,51.5,46.4,85,70,47,29.91,29.74,8,1,11,0.05
2013-5-12,65.5,59.8,55.8,59.1,55.7,52.3,91,86,74,29.81,29.73,13,3,14,0.47
2013-5-13,65.0,56.5,50.4,56.3,51.1,43.7,92,82,69,29.90,29.63,17,4,20,0.24
2013-5-14,69.8,56.3,49.7,48.3,44.1,39.3,84,65,40,29.96,29.87,11,3,11,0.00
2013-5-15,68.2,57.3,49.3,54.0,47.5,43.2,85,71,48,29.87,29.75,9,2,10,0.05
2013-5-16,69.8,60.8,52.4,56.5,51.7,46.3,87,73,55,29.77,29.63,8,2,9,0.06
2013-5-17,60.1,55.0,48.2,54.1,50.1,43.8,91,84,76,29.78,29.67,12,2,13,0.08
2013-5-18,62.6,55.6,50.4,51.8,49.9,45.5,90,82,60,30.01,29.78,9,2,9,0.06
2013-5-19,65.0,57.3,49.7,55.3,49.1,43.4,91,75,53,30.15,30.01,8,2,9,0.00
2013-5-20,66.6,56.4,45.5,53.3,48.2,41.6,90,75,56,30.09,29.65,8,2,12,0.00
2013-5-21,55.1,52.0,49.7,48.7,46.8,45.4,89,82,75,29.66,29.53,5,1,9,0.33
2013-5-22,61.7,52.9,45.4,51.1,45.6,41.9,91,77,56,29.70,29.58,8,2,12,0.41
2013-5-23,65.2,52.8,44.3,51.9,45.7,40.7,91,78,55,29.75,29.67,9,2,11,0.10
2013-5-24,65.2,53.9,42.5,52.1,44.5,38.4,92,72,50,29.77,29.72,11,2,12,0.00
2013-5-25,66.1,56.3,47.2,51.0,47.2,41.9,90,73,52,29.77,29.73,10,2,11,0.01
2013-5-26,61.9,55.0,51.5,55.2,50.1,46.3,90,84,75,29.75,29.69,6,1,8,0.27
2013-5-27,63.2,56.9,51.1,55.6,52.4,48.0,91,85,73,29.69,29.45,8,2,8,0.17
2013-5-28,61.2,57.7,53.1,54.4,52.2,49.1,90,82,70,29.61,29.48,12,2,12,0.19
2013-5-29,58.5,54.5,51.8,54.1,50.4,46.7,92,86,77,29.68,29.42,9,2,10,0.19
2013-5-30,64.4,55.4,48.1,52.2,48.6,44.6,90,78,59,29.98,29.68,11,3,13,0.02
2013-5-31,68.6,57.7,50.4,52.9,47.5,43.8,90,71,46,30.10,29.98,8,1,9,0.00
2013-6-1,74.7,60.2,49.9,58.0,50.1,43.6,87,71,45,30.00,29.83,7,1,10,0.00
2013-6-2,70.0,59.9,52.2,56.9,50.9,45.5,86,73,55,29.83,29.78,9,2,10,0.00
2013-6-3,68.9,58.5,46.4,55.6,50.0,42.2,89,74,56,29.87,29.80,8,2,10,0.00
2013-6-4,76.3,61.7,46.8,57.7,51.2,42.6,91,70,45,29.89,29.77,8,1,8,0.00
2013-6-5,71.3,62.3,53.1,59.5,53.9,47.6,86,75,56,29.85,29.77,7,1,11,0.00
2013-6-6,75.2,63.6,50.9,60.0,53.1,46.6,91,70,48,29.80,29.73,7,2,8,0.00
2013-6-7,68.4,60.4,54.0,55.7,50.0,44.2,85,69,59,29.87,29.73,14,4,14,0.14
2013-6-8,67.0,58.6,50.9,52.5,49.2,45.7,87,72,51,29.90,29.84,8,2,10,0.00
2013-6-9,68.4,58.9,51.8,54.9,49.6,42.0,87,73,46,29.85,29.77,9,2,12,0.04
2013-6-10,68.4,61.9,43.7,53.8,48.8,38.9,87,63,49,29.78,29.62,8,2,10,0.00
2013-6-11,67.7,58.3,53.1,49.5,47.1,45.0,80,67,46,29.83,29.64,10,3,11,0.00
2013-6-12,70.7,60.0,52.0,55.3,49.6,44.9,88,69,51,29.89,29.83,9,2,10,0.02
2013-6-13,69.3,58.8,48.1,55.1,48.7,42.9,88,71,49,29.92,29.88,9,2,10,0.00
2013-6-14,69.1,59.1,53.1,53.7,50.5,47.3,86,74,56,29.97,29.83,13,3,13,0.02
2013-6-15,54.7,51.9,48.6,47.6,45.5,43.3,83,79,76,29.83,29.78,1,0,1,0.00
2013-6-16,75.2,68.4,61.2,56.0,54.2,52.6,73,61,51,29.81,29.75,10,4,10,0.00
2013-6-17,77.2,65.8,54.7,56.3,53.0,48.2,85,64,47,29.81,29.65,8,2,15,0.08
2013-6-18,74.9,63.7,56.5,56.2,52.4,47.0,88,69,41,29.71,29.64,10,2,10,0.01
2013-6-19,69.5,61.2,53.3,55.9,52.1,48.0,86,73,51,29.71,29.63,9,2,10,0.00
2013-6-20,58.3,55.6,53.8,54.2,52.3,50.4,92,89,79,29.83,29.64,13,4,13,1.31
2013-6-21,70.0,59.8,53.3,57.5,52.9,48.8,92,79,60,29.91,29.82,7,2,9,0.00
2013-6-22,80.5,64.7,51.3,61.3,53.9,47.0,89,70,47,29.87,29.62,8,1,8,0.00
2013-6-23,70.6,63.4,52.7,63.2,57.2,48.3,90,80,70,29.62,29.35,4,0,4,0.13
2013-6-24,68.9,63.1,59.8,60.0,57.9,54.6,93,83,67,29.43,29.29,10,2,13,0.20
2013-6-25,73.6,63.9,58.1,61.5,56.6,54.3,90,78,60,29.57,29.41,12,3,17,0.03
2013-6-26,71.8,64.6,58.0,60.1,56.5,52.2,87,76,63,29.82,29.57,13,2,14,0.01
2013-6-27,72.5,65.9,60.5,64.4,59.8,54.7,88,81,74,29.97,29.79,8,2,12,0.03
2013-6-28,79.4,67.9,59.6,67.5,61.0,55.7,91,79,65,29.97,29.81,5,1,7,0.00
2013-6-29,81.7,69.6,59.8,66.6,61.5,55.7,92,76,58,29.85,29.75,8,1,8,0.00
2013-6-30,93.2,73.0,58.7,71.5,63.2,54.5,90,73,46,29.77,29.61,7,1,8,0.00
2013-7-1,85.7,73.1,63.4,67.9,62.1,55.5,87,70,50,29.74,29.65,8,2,10,0.00
2013-7-2,80.8,70.6,60.3,63.0,57.7,51.7,79,65,50,29.85,29.75,9,2,11,0.00
2013-7-3,78.1,66.7,55.6,58.9,52.8,47.4,83,62,39,29.90,29.78,7,2,9,0.00
2013-7-4,74.5,64.3,55.3,56.8,52.9,47.6,85,68,51,29.85,29.76,10,3,12,0.00
2013-7-5,73.4,64.1,52.9,60.5,54.0,47.0,85,70,55,29.77,29.69,8,1,10,0.00
2013-7-6,81.4,66.1,53.8,62.3,56.0,48.5,88,71,47,29.73,29.61,8,1,10,0.00
2013-7-7,75.1,65.4,56.0,60.7,56.1,50.5,84,73,56,29.68,29.63,8,2,10,0.00
2013-7-8,75.4,65.4,55.8,61.5,56.3,50.3,86,73,57,29.84,29.68,8,1,9,0.00
2013-7-9,82.8,68.9,55.4,63.2,57.3,50.0,87,68,46,29.86,29.72,6,1,9,0.00
2013-7-10,75.4,66.6,56.9,59.3,53.2,46.8,79,63,46,29.78,29.67,13,4,16,0.00
2013-7-11,70.7,61.9,54.0,53.0,49.1,44.8,80,64,45,29.81,29.69,10,3,12,0.00
2013-7-12,70.0,60.8,49.5,56.4,49.9,42.9,83,68,52,29.83,29.76,7,2,10,0.00
2013-7-13,74.3,63.0,50.4,59.1,52.1,43.9,85,68,50,29.95,29.83,8,1,8,0.00
2013-7-14,79.9,65.3,50.6,59.8,52.9,44.9,85,66,38,29.88,29.77,9,1,9,0.00
2013-7-15,85.0,70.4,53.3,60.9,52.8,47.0,86,57,33,29.83,29.67,8,2,11,0.00
2013-7-16,94.7,74.0,54.7,65.1,54.9,46.9,84,54,29,29.67,29.57,9,1,14,0.00
2013-7-17,76.0,69.3,61.9,60.7,56.9,53.1,74,65,55,29.94,29.60,14,5,16,0.00
2013-7-18,76.5,67.6,59.2,59.9,56.3,51.5,79,68,54,29.98,29.87,7,2,8,0.00
2013-7-19,78.1,67.3,56.5,62.2,57.1,50.4,87,71,54,29.91,29.78,9,2,9,0.00
2013-7-20,74.3,64.7,56.0,60.6,55.6,51.0,88,73,58,29.81,29.70,9,2,10,0.00
2013-7-21,73.4,64.5,54.5,60.2,55.3,49.0,88,73,61,29.72,29.65,8,2,10,0.00
2013-7-22,75.2,64.8,54.7,60.6,55.7,49.5,88,73,56,29.80,29.68,8,1,8,0.00
2013-7-23,79.4,67.6,55.1,61.5,55.8,49.7,87,67,45,29.82,29.72,5,1,7,0.00
2013-7-24,79.7,68.0,55.1,61.1,55.7,48.3,81,66,47,29.80,29.75,5,1,7,0.00
2013-7-25,79.2,66.8,53.5,61.4,54.9,47.5,84,67,47,29.85,29.76,7,1,8,0.00
2013-7-26,81.0,66.6,54.2,60.8,54.8,48.2,83,67,46,29.90,29.83,6,1,9,0.00
2013-7-27,80.3,67.0,57.1,60.7,54.7,49.3,84,66,40,29.89,29.74,8,2,11,0.00
2013-7-28,75.8,64.4,52.4,60.0,53.9,46.4,85,70,53,29.74,29.67,9,2,11,0.00
2013-7-29,75.4,65.2,55.8,59.5,55.0,50.0,83,70,54,29.75,29.69,8,2,12,0.00
2013-7-30,73.1,65.0,56.3,59.5,55.5,50.6,83,72,61,29.87,29.74,8,2,9,0.00
2013-7-31,75.1,65.0,56.0,59.8,55.8,50.4,86,73,57,29.86,29.75,10,2,10,0.00
2013-8-1,71.6,63.9,55.8,59.7,56.5,51.3,88,77,63,29.79,29.74,12,3,14,0.00
2013-8-2,64.8,60.8,58.7,59.2,56.0,54.3,89,84,79,29.88,29.77,7,1,8,0.00
2013-8-3,73.8,65.3,59.2,60.4,57.6,53.1,88,77,59,29.89,29.81,8,1,8,0.00
2013-8-4,76.7,65.5,54.4,64.6,57.1,50.2,91,75,58,29.82,29.70,8,1,9,0.00
2013-8-5,79.6,67.4,53.5,64.9,56.8,49.0,90,70,46,29.77,29.68,6,1,7,0.00
2013-8-6,81.7,66.8,52.9,61.6,55.0,47.6,87,67,42,29.75,29.67,6,1,7,0.00
2013-8-7,81.5,68.4,55.4,62.9,55.1,49.3,84,64,41,29.75,29.68,9,1,10,0.00
2013-8-8,72.9,61.6,59.2,59.9,55.8,52.3,89,81,64,29.77,29.71,9,3,12,0.00
2013-8-12,75.6,70.2,61.9,59.0,57.3,53.2,80,64,55,29.82,29.76,7,2,7,0.00
2013-8-13,77.9,66.8,55.8,58.5,54.9,50.3,84,67,48,29.85,29.69,7,1,7,0.00
2013-8-14,77.8,66.3,54.7,65.7,58.0,48.7,87,75,60,29.69,29.66,4,1,4,0.00
2013-8-15,69.7,67.1,63.2,64.3,62.3,58.2,89,85,80,29.74,29.68,4,1,4,0.02
2013-8-16,81.9,68.9,57.2,67.1,60.8,53.7,93,77,53,29.76,29.71,7,1,7,0.00
2013-8-17,76.9,68.2,61.9,61.4,58.9,54.7,85,73,55,29.81,29.73,8,2,8,0.00
2013-8-18,73.1,66.3,59.8,60.2,57.1,52.2,81,72,62,29.87,29.80,7,1,7,0.00
2013-8-19,76.3,64.6,54.5,59.4,54.6,49.1,85,71,54,29.87,29.80,8,1,8,0.00
2013-8-20,73.3,63.0,53.6,59.7,53.4,48.0,85,72,57,29.92,29.84,8,1,8,0.00
2013-8-21,82.1,64.1,50.0,60.6,53.4,44.7,85,69,47,29.85,29.70,8,1,8,0.00
2013-8-22,69.5,56.9,52.6,59.2,51.0,47.3,87,81,68,29.70,29.67,3,0,3,0.00
2013-8-24,73.6,67.0,61.4,58.8,56.2,52.7,85,69,52,29.65,29.62,9,2,9,0.00
2013-8-25,69.5,59.7,54.2,58.2,52.5,48.5,84,77,65,29.69,29.66,6,0,6,0.00
2013-9-6,68.9,66.6,64.8,63.2,61.9,60.8,88,85,82,29.83,29.81,1,0,1,0.00
2013-9-7,79.0,67.2,61.2,65.8,61.0,56.1,90,81,62,29.84,29.78,5,2,5,0.00
2013-9-8,73.1,64.3,56.7,63.8,58.5,53.1,92,82,72,29.85,29.77,4,1,4,0.01
2013-9-9,73.1,63.8,55.1,63.2,57.6,51.4,92,81,66,29.81,29.74,5,1,5,0.00
2013-9-10,80.6,65.2,53.8,64.5,57.8,50.1,91,78,57,29.76,29.66,6,1,6,0.00
2013-9-11,89.6,69.3,55.6,67.1,58.9,51.5,92,71,47,29.71,29.64,4,1,4,0.00
2013-9-12,63.2,62.0,59.9,56.0,55.2,54.5,82,78,75,29.69,29.66,1,0,1,0.00
2013-9-13,70.9,62.8,58.0,61.6,57.4,53.9,92,83,70,29.71,29.61,7,2,7,0.00
2013-9-14,73.1,62.7,58.1,63.0,58.5,55.5,91,86,70,29.64,29.51,4,1,4,0.00
2013-9-15,67.1,60.2,57.2,62.5,57.5,55.3,94,91,81,29.53,29.45,9,2,9,0.01
2013-9-16,69.3,62.2,59.0,61.7,58.4,53.6,94,88,76,29.65,29.51,8,3,8,0.00
2013-9-17,67.0,59.9,55.8,57.1,54.0,50.3,89,81,66,29.65,29.59,5,1,5,0.00
2013-9-18,70.7,59.6,51.1,55.4,51.3,47.6,92,75,53,29.81,29.64,6,1,6,0.00
2013-9-19,81.4,63.9,54.0,57.9,52.4,48.3,85,68,40,29.80,29.49,9,2,9,0.00
2013-9-20,74.9,61.0,51.5,58.6,51.3,46.2,87,72,47,29.49,29.33,4,1,4,0.00
2013-9-21,70.4,61.5,55.8,56.7,54.4,51.7,89,78,59,29.45,29.38,9,2,9,0.00
2013-9-22,60.8,58.1,56.3,54.4,53.2,51.5,91,84,77,29.41,29.24,22,6,22,0.00
2013-9-23,63.2,57.6,51.3,52.9,50.9,46.6,89,79,62,29.68,29.42,11,5,11,0.00
2013-9-24,67.5,55.5,48.8,55.2,48.9,44.5,89,79,59,29.68,29.59,4,1,4,0.00
2013-9-25,73.1,55.7,45.4,55.0,48.0,42.0,91,77,47,29.75,29.61,3,1,3,0.00
2013-9-26,64.4,53.4,42.7,52.2,46.1,38.6,90,77,60,29.86,29.76,5,1,5,0.00
2013-9-27,55.4,53.2,51.1,50.7,48.3,46.5,89,84,77,29.83,29.73,8,2,8,0.00
2013-9-28,59.4,55.6,52.2,57.4,51.9,47.4,94,88,75,29.21,29.01,10,5,10,0.00
2013-9-29,56.2,54.4,52.6,52.1,50.2,46.3,92,86,73,29.21,28.85,16,8,16,0.00
2013-9-30,56.2,52.9,51.1,50.8,47.2,43.8,90,81,71,29.59,29.02,13,7,13,0.00
2013-10-1,58.7,52.9,49.1,49.0,46.7,43.8,89,80,63,29.82,29.60,10,4,10,0.00
2013-10-2,53.3,49.7,45.5,50.4,47.1,43.1,93,91,89,29.93,29.81,8,2,8,0.00
2013-10-3,62.3,49.0,40.0,53.7,44.1,37.5,95,84,66,30.21,29.94,4,0,4,0.00
2013-10-4,54.2,42.0,38.7,49.2,39.0,35.7,94,89,83,30.24,30.20,3,0,3,0.00
2013-10-7,62.3,57.0,54.0,51.8,49.3,47.7,84,76,64,29.68,29.62,13,7,13,0.00
2013-10-8,66.8,55.0,43.4,50.1,46.6,37.9,91,74,49,29.85,29.68,6,2,6,0.00
2013-10-9,65.9,52.4,40.5,48.0,43.4,36.3,90,73,52,29.87,29.70,4,1,4,0.00
2013-10-10,59.2,51.1,42.1,50.9,45.1,37.6,88,80,69,29.81,29.67,5,1,5,0.00
2013-10-11,56.3,46.0,37.1,49.5,41.4,33.7,92,84,76,29.89,29.82,3,0,3,0.00
2013-10-12,68.8,51.9,43.6,53.9,46.0,38.4,92,81,56,29.96,29.82,4,1,4,0.00
2013-10-13,64.1,47.7,36.5,51.7,40.8,32.9,91,78,58,30.12,29.96,5,1,5,0.00
2013-10-14,59.4,46.5,35.1,50.4,41.1,31.5,92,82,72,30.19,30.12,5,1,5,0.00
2013-10-15,59.9,48.5,40.1,51.3,43.9,36.8,92,84,71,30.15,29.93,4,1,4,0.00
2013-10-16,71.5,54.1,45.0,57.6,47.6,40.1,92,80,55,29.95,29.90,4,0,4,0.00
2013-10-17,64.4,51.0,45.0,54.5,47.1,40.5,90,87,67,30.04,29.95,3,0,3,0.00
2013-10-18,54.4,48.7,43.9,50.3,45.7,41.2,94,90,85,30.01,29.91,3,0,3,0.00
2013-10-19,51.8,48.8,45.4,49.0,46.5,43.2,94,92,89,29.95,29.90,1,0,1,0.00
2013-10-20,52.6,50.0,48.2,49.4,47.2,45.8,92,90,88,29.97,29.90,2,0,2,0.00
2013-10-21,53.5,50.3,49.0,50.1,47.7,46.7,93,91,88,29.93,29.86,2,0,2,0.00
2013-10-22,54.7,49.8,46.8,51.1,47.6,45.2,94,92,87,29.89,29.78,3,0,3,0.00
2013-10-23,59.2,48.9,43.2,53.6,45.9,41.3,95,90,78,29.81,29.74,4,1,4,0.00
2013-10-24,59.2,46.2,39.1,52.0,43.2,37.2,94,89,76,29.84,29.77,3,1,3,0.00
2013-10-25,53.8,50.8,47.0,50.7,48.5,45.1,94,92,89,30.08,29.89,5,1,5,0.00
2013-10-26,50.8,50.2,50.0,48.0,47.5,47.2,91,91,89,30.09,30.07,3,0,3,0.00
2013-10-27,72.9,54.7,46.4,58.1,48.3,39.0,92,80,57,29.92,29.70,5,1,5,0.00
2013-10-28,67.9,54.1,44.6,38.4,31.5,27.1,76,44,26,29.79,29.68,12,4,12,0.00
2013-10-29,68.0,47.2,36.4,44.0,32.5,26.9,75,57,39,29.77,29.70,5,1,5,0.00
2013-10-30,56.2,46.8,38.7,45.4,39.7,32.5,84,76,64,29.86,29.77,8,2,8,0.00
2013-10-31,52.9,50.8,48.4,50.0,47.9,45.1,92,90,85,29.99,29.81,7,2,7,0.00
2013-11-1,56.9,53.2,51.1,51.8,49.8,48.2,92,88,82,30.00,29.55,7,2,7,0.00
2013-11-2,51.1,47.6,43.2,48.4,45.4,41.0,93,92,90,29.58,29.14,10,3,10,0.87
2013-11-3,60.8,42.7,33.5,48.6,37.9,31.6,95,84,60,29.85,29.59,4,1,4,0.01
2013-11-4,54.9,41.5,32.0,44.6,36.2,29.8,92,82,65,29.94,29.83,4,1,4,0.01
2013-11-5,45.7,43.1,40.7,42.5,40.0,37.5,91,89,80,30.00,29.78,7,1,7,0.17
2013-11-6,52.6,46.7,41.8,47.5,42.9,39.3,94,87,80,30.07,29.76,5,2,5,0.01
2013-11-7,52.6,48.4,44.6,48.2,45.1,42.0,94,88,80,29.75,29.40,8,3,8,0.43
2013-11-8,57.6,50.2,46.8,47.5,44.9,42.3,93,82,67,29.90,29.67,7,2,7,0.07
2013-11-9,51.8,46.7,42.3,45.9,43.0,39.6,90,87,80,29.90,29.84,3,1,3,0.01
2013-11-10,53.1,47.0,42.5,47.4,43.4,40.0,93,87,79,29.93,29.87,2,1,2,0.00
2013-11-11,59.4,52.0,47.9,44.1,41.1,38.9,75,67,55,29.92,29.75,7,2,7,0.00
2013-11-12,59.8,53.0,47.9,52.0,47.1,40.3,90,80,68,30.05,29.75,13,3,13,0.11
2013-11-13,58.3,53.2,46.4,50.4,47.7,42.2,91,82,72,30.15,30.05,12,4,12,0.02
2013-11-14,54.0,46.2,43.2,44.5,41.1,38.7,89,83,70,30.04,29.79,2,0,2,0.01
2013-11-15,48.4,45.8,43.6,45.4,42.3,40.2,93,87,80,29.78,28.99,17,7,17,0.99
2013-11-16,48.2,44.0,39.2,40.3,38.9,35.8,90,82,70,29.44,29.04,13,2,13,0.04
2013-11-17,53.1,45.5,35.1,45.5,40.9,31.9,93,84,73,29.61,29.46,16,6,16,0.07
2013-11-18,48.8,46.6,44.5,45.8,44.0,42.6,93,90,83,29.62,29.28,7,1,7,1.03
2013-11-19,52.2,45.4,43.7,42.9,38.8,25.1,93,80,38,29.59,29.30,13,4,13,0.05
2013-12-3,51.5,37.9,31.7,29.1,19.5,16.0,53,48,39,30.10,30.03,9,3,9,0.00
2013-12-4,46.4,34.2,27.7,19.8,14.6,11.3,52,45,33,30.12,30.08,12,4,12,0.00
2013-12-5,42.1,30.4,26.3,21.2,14.1,9.7,57,51,39,30.10,29.97,7,3,7,0.00
2013-12-6,34.9,26.4,22.1,9.0,3.3,-0.3,47,37,28,30.08,29.99,17,6,17,0.00
2013-12-7,44.5,26.3,19.3,12.2,3.2,-0.5,49,37,25,30.17,30.09,13,2,13,0.00
2013-12-8,44.3,26.2,18.9,22.5,11.5,3.3,62,54,41,30.32,30.17,4,1,4,0.00
2013-12-9,31.9,28.7,24.7,25.7,21.1,13.5,83,73,62,30.32,30.22,5,2,5,0.00
2013-12-10,35.6,33.0,30.6,31.5,28.8,25.5,88,84,81,30.24,30.19,5,1,5,0.00
2013-12-11,41.4,35.9,33.3,34.0,30.2,28.4,84,80,74,30.18,29.92,1,0,1,0.00
2013-12-12,39.8,36.7,33.3,37.4,33.0,28.8,91,86,83,29.90,29.75,4,1,4,0.17
2013-12-13,45.4,42.1,39.6,43.5,39.9,37.2,93,92,91,30.17,29.87,3,1,3,0.16
2013-12-14,49.1,45.9,41.6,45.2,43.2,39.7,94,90,85,30.18,30.04,12,4,12,0.01
2013-12-15,52.9,48.4,42.8,48.2,45.2,38.9,93,88,82,30.16,30.02,14,6,14,0.09
2013-12-16,53.1,41.1,34.2,47.4,38.0,31.2,95,89,81,30.23,30.02,2,0,2,0.02
2013-12-17,43.9,39.0,32.4,41.2,36.7,29.9,94,92,90,30.02,29.81,11,2,11,0.01
2013-12-18,51.5,42.5,34.7,41.2,35.3,25.6,92,76,51,29.96,29.78,12,4,12,0.04
2013-12-19,35.5,31.5,28.8,26.6,23.2,22.0,77,71,65,30.11,30.00,3,1,3,0.00
2013-12-20,34.9,34.7,34.7,32.0,32.0,32.0,90,90,90,29.62,29.61,0,0,0,0.00
2013-12-21,39.4,36.4,34.9,36.5,33.7,32.2,92,90,88,29.92,29.62,3,1,3,0.26
2013-12-22,39.4,37.7,36.2,37.5,35.8,34.0,94,93,92,30.04,29.92,2,1,2,0.71
2013-12-23,57.8,47.8,38.5,47.6,43.0,36.9,96,84,63,30.22,29.81,16,5,16,0.33
2013-12-24,48.6,41.2,34.0,42.2,37.3,31.1,93,86,78,30.35,30.24,3,1,3,0.00
2013-12-25,42.5,37.6,31.3,38.4,34.6,28.5,92,89,85,30.30,30.14,2,1,2,0.01
2013-12-26,57.8,44.2,35.3,49.5,40.1,32.1,93,86,69,30.15,29.96,3,1,3,0.12
2013-12-27,50.8,42.4,35.3,45.9,39.4,32.3,95,89,80,30.07,29.79,10,2,10,0.35
2013-12-28,46.4,42.7,40.3,42.9,40.1,37.7,92,90,86,30.27,30.08,2,0,2,0.00
2013-12-29,45.9,41.6,36.4,42.7,39.0,34.2,95,90,85,30.23,30.08,4,1,4,0.04
2013-12-30,47.3,43.2,40.5,43.7,40.6,38.0,93,90,87,30.07,29.84,3,0,3,0.00
2013-12-31,46.4,45.0,43.2,44.8,43.0,40.5,94,93,90,30.12,29.91,7,2,7,0.10
2014-1-1,49.9,46.3,43.7,47.3,44.0,41.9,95,92,90,30.14,30.01,2,1,2,0.02
2014-1-2,47.3,45.4,43.6,45.5,43.2,39.0,94,92,80,30.00,29.57,13,5,13,1.17